Time,TemperatureF,DewpointF,PressureIn,WindDirection,WindDirectionDegrees,WindSpeedMPH,WindSpeedGustMPH,Humidity,HourlyPrecipIn,Conditions,Clouds,dailyrainin,SolarRadiationWatts/m^2,SoftwareType,DateUTC
2013-06-29 00:01:00,79.0,68.0,-100.00,WNW,282,1.0,4.0,68,0.00,,,0.00,0.000000,,2013-06-29 05:01:00,
2013-06-29 00:21:00,76.0,69.0,-100.00,West,275,1.0,2.0,80,0.00,,,0.00,0.000000,,2013-06-29 05:21:00,
2013-06-29 00:31:00,76.0,69.0,-100.00,West,275,1.0,2.0,80,0.00,,,0.00,0.000000,,2013-06-29 05:31:00,
2013-06-29 00:41:00,76.0,69.0,-100.00,West,275,1.0,2.0,80,0.00,,,0.00,0.000000,,2013-06-29 05:41:00,
2013-06-29 00:52:00,76.0,69.0,-100.00,West,275,1.0,2.0,80,0.00,,,0.00,0.000000,,2013-06-29 05:52:00,
2013-06-29 01:01:00,76.0,69.0,-100.00,West,275,1.0,2.0,80,0.00,,,0.00,0.000000,,2013-06-29 06:01:00,
2013-06-29 01:02:00,75.0,68.0,-100.00,WNW,284,1.0,2.0,79,0.00,,,0.00,0.000000,,2013-06-29 06:02:00,
2013-06-29 01:22:00,75.0,68.0,-100.00,WNW,284,1.0,2.0,79,0.00,,,0.00,0.000000,,2013-06-29 06:22:00,
2013-06-29 01:34:00,75.0,68.0,-100.00,WNW,284,1.0,2.0,79,0.00,,,0.00,0.000000,,2013-06-29 06:34:00,
2013-06-29 01:43:00,75.0,68.0,-100.00,WNW,284,1.0,2.0,79,0.00,,,0.00,0.000000,,2013-06-29 06:43:00,
2013-06-29 01:53:00,75.0,68.0,-100.00,WNW,284,1.0,2.0,79,0.00,,,0.00,0.000000,,2013-06-29 06:53:00,
2013-06-29 02:22:00,75.0,67.0,-100.00,NNW,336,2.0,3.0,77,0.00,,,0.00,0.000000,,2013-06-29 07:22:00,
2013-06-29 02:33:00,75.0,67.0,-100.00,NNW,336,2.0,3.0,77,0.00,,,0.00,0.000000,,2013-06-29 07:33:00,
2013-06-29 02:43:00,75.0,67.0,-100.00,NNW,336,2.0,3.0,77,0.00,,,0.00,0.000000,,2013-06-29 07:43:00,
2013-06-29 02:53:00,75.0,67.0,-100.00,NNW,336,2.0,3.0,77,0.00,,,0.00,0.000000,,2013-06-29 07:53:00,
2013-06-29 03:01:00,75.0,67.0,-100.00,NNW,336,2.0,3.0,77,0.00,,,0.00,0.000000,,2013-06-29 08:01:00,
2013-06-29 03:02:00,77.0,68.0,-100.00,NW,310,3.0,5.0,74,0.00,,,0.00,0.000000,,2013-06-29 08:02:00,
2013-06-29 03:22:00,77.0,68.0,-100.00,NW,310,3.0,5.0,74,0.00,,,0.00,0.000000,,2013-06-29 08:22:00,
2013-06-29 03:33:00,77.0,68.0,-100.00,NW,310,3.0,5.0,74,0.00,,,0.00,0.000000,,2013-06-29 08:33:00,
2013-06-29 03:43:00,77.0,68.0,-100.00,NW,310,3.0,5.0,74,0.00,,,0.00,0.000000,,2013-06-29 08:43:00,
2013-06-29 03:52:00,77.0,68.0,-100.00,NW,310,3.0,5.0,74,0.00,,,0.00,0.000000,,2013-06-29 08:52:00,
2013-06-29 04:22:00,76.0,67.0,-100.00,NNW,331,2.0,5.0,75,0.00,,,0.00,0.000000,,2013-06-29 09:22:00,
2013-06-29 04:33:00,76.0,67.0,-100.00,NNW,331,2.0,5.0,75,0.00,,,0.00,0.000000,,2013-06-29 09:33:00,
2013-06-29 04:42:00,76.0,67.0,-100.00,NNW,331,2.0,5.0,75,0.00,,,0.00,0.000000,,2013-06-29 09:42:00,
2013-06-29 04:53:00,76.0,67.0,-100.00,NNW,331,2.0,5.0,75,0.00,,,0.00,0.000000,,2013-06-29 09:53:00,
2013-06-29 05:01:00,76.0,67.0,-100.00,NNW,331,2.0,5.0,75,0.00,,,0.00,0.000000,,2013-06-29 10:01:00,
2013-06-29 05:02:00,76.0,67.0,-100.00,NNE,14,3.0,6.0,75,0.00,,,0.00,0.000000,,2013-06-29 10:02:00,
2013-06-29 05:22:00,76.0,67.0,-100.00,NNE,14,3.0,6.0,75,0.00,,,0.00,0.000000,,2013-06-29 10:22:00,
2013-06-29 05:33:00,76.0,67.0,-100.00,NNE,14,3.0,6.0,75,0.00,,,0.00,0.000000,,2013-06-29 10:33:00,
2013-06-29 05:43:00,76.0,67.0,-100.00,NNE,14,3.0,6.0,75,0.00,,,0.00,0.000000,,2013-06-29 10:43:00,
2013-06-29 05:53:00,76.0,67.0,-100.00,NNE,14,3.0,6.0,75,0.00,,,0.00,0.000000,,2013-06-29 10:53:00,
2013-06-29 06:02:00,75.0,68.0,-100.00,WSW,248,1.0,6.0,79,0.00,,,0.00,0.000000,,2013-06-29 11:02:00,
2013-06-29 06:23:00,75.0,68.0,-100.00,WSW,248,1.0,6.0,79,0.00,,,0.00,0.000000,,2013-06-29 11:23:00,
2013-06-29 06:33:00,75.0,68.0,-100.00,WSW,248,1.0,6.0,79,0.00,,,0.00,0.000000,,2013-06-29 11:33:00,
2013-06-29 06:43:00,75.0,68.0,-100.00,WSW,248,1.0,6.0,79,0.00,,,0.00,0.000000,,2013-06-29 11:43:00,
2013-06-29 06:53:00,75.0,68.0,-100.00,WSW,248,1.0,6.0,79,0.00,,,0.00,0.000000,,2013-06-29 11:53:00,
2013-06-29 07:02:00,75.0,66.0,-100.00,NW,307,2.0,4.0,74,0.00,,,0.00,47.000000,,2013-06-29 12:02:00,
2013-06-29 07:22:00,75.0,66.0,-100.00,NW,307,2.0,4.0,74,0.00,,,0.00,47.000000,,2013-06-29 12:22:00,
2013-06-29 07:34:00,75.0,66.0,-100.00,NW,307,2.0,4.0,74,0.00,,,0.00,47.000000,,2013-06-29 12:34:00,
2013-06-29 07:43:00,75.0,66.0,-100.00,NW,307,2.0,4.0,74,0.00,,,0.00,47.000000,,2013-06-29 12:43:00,
2013-06-29 07:53:00,75.0,66.0,-100.00,NW,307,2.0,4.0,74,0.00,,,0.00,47.000000,,2013-06-29 12:53:00,
2013-06-29 08:02:00,81.0,66.0,-100.00,NW,326,3.0,6.0,61,0.00,,,0.00,220.000000,,2013-06-29 13:02:00,
2013-06-29 08:43:00,81.0,66.0,-100.00,NW,326,3.0,6.0,61,0.00,,,0.00,220.000000,,2013-06-29 13:43:00,
2013-06-29 08:53:00,81.0,66.0,-100.00,NW,326,3.0,6.0,61,0.00,,,0.00,220.000000,,2013-06-29 13:53:00,
2013-06-29 09:23:00,85.0,65.0,-100.00,NW,319,4.0,7.0,51,0.00,,,0.00,440.000000,,2013-06-29 14:23:00,
2013-06-29 09:34:00,85.0,65.0,-100.00,NW,319,4.0,7.0,51,0.00,,,0.00,440.000000,,2013-06-29 14:34:00,
2013-06-29 09:45:00,85.0,65.0,-100.00,NW,319,4.0,7.0,51,0.00,,,0.00,440.000000,,2013-06-29 14:45:00,
2013-06-29 09:53:00,85.0,65.0,-100.00,NW,319,4.0,7.0,51,0.00,,,0.00,440.000000,,2013-06-29 14:53:00,
2013-06-29 10:01:00,85.0,65.0,-100.00,NW,319,4.0,7.0,51,0.00,,,0.00,440.000000,,2013-06-29 15:01:00,
2013-06-29 10:02:00,87.0,58.0,-100.00,North,3,5.0,11.0,37,0.00,,,0.00,653.000000,,2013-06-29 15:02:00,
2013-06-29 10:22:00,87.0,58.0,-100.00,North,3,5.0,11.0,37,0.00,,,0.00,653.000000,,2013-06-29 15:22:00,
2013-06-29 10:33:00,87.0,58.0,-100.00,North,3,5.0,11.0,37,0.00,,,0.00,653.000000,,2013-06-29 15:33:00,
2013-06-29 10:42:00,87.0,58.0,-100.00,North,3,5.0,11.0,37,0.00,,,0.00,653.000000,,2013-06-29 15:42:00,
2013-06-29 10:53:00,87.0,58.0,-100.00,North,3,5.0,11.0,37,0.00,,,0.00,653.000000,,2013-06-29 15:53:00,
2013-06-29 11:23:00,89.0,57.0,-100.00,NNE,17,5.0,14.0,34,0.00,,,0.00,853.000000,,2013-06-29 16:23:00,
2013-06-29 11:34:00,89.0,57.0,-100.00,NNE,17,5.0,14.0,34,0.00,,,0.00,853.000000,,2013-06-29 16:34:00,
2013-06-29 11:43:00,89.0,57.0,-100.00,NNE,17,5.0,14.0,34,0.00,,,0.00,853.000000,,2013-06-29 16:43:00,
2013-06-29 11:53:00,89.0,57.0,-100.00,NNE,17,5.0,14.0,34,0.00,,,0.00,853.000000,,2013-06-29 16:53:00,
2013-06-29 12:01:00,89.0,57.0,-100.00,NNE,17,5.0,14.0,34,0.00,,,0.00,853.000000,,2013-06-29 17:01:00,
2013-06-29 12:23:00,90.0,58.0,-100.00,NW,321,9.0,15.0,34,0.00,,,0.00,918.000000,,2013-06-29 17:23:00,
2013-06-29 12:34:00,90.0,58.0,-100.00,NW,321,9.0,15.0,34,0.00,,,0.00,918.000000,,2013-06-29 17:34:00,
2013-06-29 12:42:00,90.0,58.0,-100.00,NW,321,9.0,15.0,34,0.00,,,0.00,918.000000,,2013-06-29 17:42:00,
2013-06-29 12:53:00,90.0,58.0,-100.00,NW,321,9.0,15.0,34,0.00,,,0.00,918.000000,,2013-06-29 17:53:00,
2013-06-29 13:01:00,90.0,58.0,-100.00,NW,321,9.0,15.0,34,0.00,,,0.00,918.000000,,2013-06-29 18:01:00,
2013-06-29 13:22:00,90.0,55.0,-100.00,NW,311,8.0,17.0,31,0.00,,,0.00,1083.000000,,2013-06-29 18:22:00,
2013-06-29 13:34:00,90.0,55.0,-100.00,NW,311,8.0,17.0,31,0.00,,,0.00,1083.000000,,2013-06-29 18:34:00,
2013-06-29 13:43:00,90.0,55.0,-100.00,NW,311,8.0,17.0,31,0.00,,,0.00,1083.000000,,2013-06-29 18:43:00,
2013-06-29 13:53:00,90.0,55.0,-100.00,NW,311,8.0,17.0,31,0.00,,,0.00,1083.000000,,2013-06-29 18:53:00,
2013-06-29 14:01:00,90.0,55.0,-100.00,NW,311,8.0,17.0,31,0.00,,,0.00,1083.000000,,2013-06-29 19:01:00,
2013-06-29 14:02:00,91.0,53.0,-100.00,NW,318,8.0,19.0,28,0.00,,,0.00,1082.000000,,2013-06-29 19:02:00,
2013-06-29 14:22:00,91.0,53.0,-100.00,NW,318,8.0,19.0,28,0.00,,,0.00,1082.000000,,2013-06-29 19:22:00,
2013-06-29 14:34:00,91.0,53.0,-100.00,NW,318,8.0,19.0,28,0.00,,,0.00,1082.000000,,2013-06-29 19:34:00,
2013-06-29 14:43:00,91.0,53.0,-100.00,NW,318,8.0,19.0,28,0.00,,,0.00,1082.000000,,2013-06-29 19:43:00,
2013-06-29 14:54:00,91.0,53.0,-100.00,NW,318,8.0,19.0,28,0.00,,,0.00,1082.000000,,2013-06-29 19:54:00,
2013-06-29 15:02:00,91.0,53.0,-100.00,NNW,343,7.0,17.0,28,0.00,,,0.00,1021.000000,,2013-06-29 20:02:00,
2013-06-29 15:23:00,91.0,53.0,-100.00,NNW,343,7.0,17.0,28,0.00,,,0.00,1021.000000,,2013-06-29 20:23:00,
2013-06-29 15:33:00,91.0,53.0,-100.00,NNW,343,7.0,17.0,28,0.00,,,0.00,1021.000000,,2013-06-29 20:33:00,
2013-06-29 15:43:00,91.0,53.0,-100.00,NNW,343,7.0,17.0,28,0.00,,,0.00,1021.000000,,2013-06-29 20:43:00,
2013-06-29 15:52:00,91.0,53.0,-100.00,NNW,343,7.0,17.0,28,0.00,,,0.00,1021.000000,,2013-06-29 20:52:00,
2013-06-29 16:32:00,92.0,57.0,-100.00,North,354,6.0,14.0,31,0.00,,,0.00,906.000000,,2013-06-29 21:32:00,
2013-06-29 16:42:00,92.0,57.0,-100.00,North,354,6.0,14.0,31,0.00,,,0.00,906.000000,,2013-06-29 21:42:00,
2013-06-29 16:52:00,92.0,57.0,-100.00,North,354,6.0,14.0,31,0.00,,,0.00,906.000000,,2013-06-29 21:52:00,
2013-06-29 17:01:00,92.0,57.0,-100.00,North,354,6.0,14.0,31,0.00,,,0.00,906.000000,,2013-06-29 22:01:00,
2013-06-29 17:02:00,92.0,53.0,-100.00,NNW,333,9.0,17.0,27,0.00,,,0.00,781.000000,,2013-06-29 22:02:00,
2013-06-29 17:33:00,92.0,53.0,-100.00,NNW,333,9.0,17.0,27,0.00,,,0.00,781.000000,,2013-06-29 22:33:00,
2013-06-29 17:43:00,92.0,53.0,-100.00,NNW,333,9.0,17.0,27,0.00,,,0.00,781.000000,,2013-06-29 22:43:00,
2013-06-29 17:53:00,92.0,53.0,-100.00,NNW,333,9.0,17.0,27,0.00,,,0.00,781.000000,,2013-06-29 22:53:00,
2013-06-29 18:02:00,92.0,55.0,-100.00,NNW,339,4.0,14.0,29,0.00,,,0.00,585.000000,,2013-06-29 23:02:00,
2013-06-29 18:23:00,92.0,55.0,-100.00,NNW,339,4.0,14.0,29,0.00,,,0.00,585.000000,,2013-06-29 23:23:00,
2013-06-29 18:34:00,92.0,55.0,-100.00,NNW,339,4.0,14.0,29,0.00,,,0.00,585.000000,,2013-06-29 23:34:00,
2013-06-29 18:43:00,92.0,55.0,-100.00,NNW,339,4.0,14.0,29,0.00,,,0.00,585.000000,,2013-06-29 23:43:00,
2013-06-29 18:53:00,92.0,55.0,-100.00,NNW,339,4.0,14.0,29,0.00,,,0.00,585.000000,,2013-06-29 23:53:00,
2013-06-29 19:22:00,90.0,55.0,-100.00,NNW,336,5.0,15.0,31,0.00,,,0.00,363.000000,,2013-06-30 00:22:00,
2013-06-29 19:34:00,90.0,55.0,-100.00,NNW,336,5.0,15.0,31,0.00,,,0.00,363.000000,,2013-06-30 00:34:00,
2013-06-29 19:43:00,90.0,55.0,-100.00,NNW,336,5.0,15.0,31,0.00,,,0.00,363.000000,,2013-06-30 00:43:00,
2013-06-29 19:52:00,90.0,55.0,-100.00,NNW,336,5.0,15.0,31,0.00,,,0.00,363.000000,,2013-06-30 00:52:00,
2013-06-29 20:01:00,90.0,55.0,-100.00,NNW,336,5.0,15.0,31,0.00,,,0.00,363.000000,,2013-06-30 01:01:00,
2013-06-29 20:02:00,86.0,57.0,-100.00,NW,305,3.0,9.0,37,0.00,,,0.00,146.000000,,2013-06-30 01:02:00,
2013-06-29 20:22:00,86.0,57.0,-100.00,NW,305,3.0,9.0,37,0.00,,,0.00,146.000000,,2013-06-30 01:22:00,
2013-06-29 20:33:00,86.0,57.0,-100.00,NW,305,3.0,9.0,37,0.00,,,0.00,146.000000,,2013-06-30 01:33:00,
2013-06-29 20:44:00,86.0,57.0,-100.00,NW,305,3.0,9.0,37,0.00,,,0.00,146.000000,,2013-06-30 01:44:00,
2013-06-29 20:53:00,86.0,57.0,-100.00,NW,305,3.0,9.0,37,0.00,,,0.00,146.000000,,2013-06-30 01:53:00,
2013-06-29 21:24:00,76.0,61.0,-100.00,WSW,244,1.0,4.0,60,0.00,,,0.00,9.000000,,2013-06-30 02:24:00,
2013-06-29 21:34:00,76.0,61.0,-100.00,WSW,244,1.0,4.0,60,0.00,,,0.00,9.000000,,2013-06-30 02:34:00,
2013-06-29 21:43:00,76.0,61.0,-100.00,WSW,244,1.0,4.0,60,0.00,,,0.00,9.000000,,2013-06-30 02:43:00,
2013-06-29 21:53:00,76.0,61.0,-100.00,WSW,244,1.0,4.0,60,0.00,,,0.00,9.000000,,2013-06-30 02:53:00,
2013-06-29 22:01:00,76.0,61.0,-100.00,WSW,244,1.0,4.0,60,0.00,,,0.00,9.000000,,2013-06-30 03:01:00,
2013-06-29 22:23:00,72.0,63.0,-100.00,West,271,0.0,2.0,74,0.00,,,0.00,0.000000,,2013-06-30 03:23:00,
2013-06-29 22:34:00,72.0,63.0,-100.00,West,271,0.0,2.0,74,0.00,,,0.00,0.000000,,2013-06-30 03:34:00,
2013-06-29 22:43:00,72.0,63.0,-100.00,West,271,0.0,2.0,74,0.00,,,0.00,0.000000,,2013-06-30 03:43:00,
2013-06-29 22:53:00,72.0,63.0,-100.00,West,271,0.0,2.0,74,0.00,,,0.00,0.000000,,2013-06-30 03:53:00,
2013-06-29 23:01:00,72.0,63.0,-100.00,West,271,0.0,2.0,74,0.00,,,0.00,0.000000,,2013-06-30 04:01:00,
2013-06-29 23:02:00,71.0,61.0,-100.00,WNW,289,1.0,3.0,71,0.00,,,0.00,0.000000,,2013-06-30 04:02:00,
2013-06-29 23:33:00,71.0,61.0,-100.00,WNW,289,1.0,3.0,71,0.00,,,0.00,0.000000,,2013-06-30 04:33:00,
2013-06-29 23:43:00,71.0,61.0,-100.00,WNW,289,1.0,3.0,71,0.00,,,0.00,0.000000,,2013-06-30 04:43:00,
2013-06-29 23:53:00,71.0,61.0,-100.00,WNW,289,1.0,3.0,71,0.00,,,0.00,0.000000,,2013-06-30 04:53:00,